Fillmore, Iowa
Current Conditions -  °F | °C
As of 6:15 PM on Monday 24 Nov 2014 (Local Time) from KMXO Reporting Station
Overcast Overcast  
Wind Chill:   Ceiling: 2000
Heat Index: 23°   Visibility: 10mi
Dew Point: 18°   Wind: 23mph
Humidity: 80%   Direction: 290°WNW
Pressure: 29.72"   Gusts: 30mph
Location:  42.2695°N, 91.0027°W
Report Text: KMXO 250015Z AUTO 29020G26KT 10SM OVC020 M05/M08 A2972 RMK AO2
Loading
Personal Weather Stations






























Interactive Weather Map New forecast layout! Learn more

10-Day Weather Forecast

Advertisements
Track Severe Weather on mobile